createdAt,value
2018-06-27T00:01:57.511Z,71.38
2018-06-27T00:04:26.597Z,71.91
2018-06-27T00:06:55.712Z,71.86
2018-06-27T00:09:25.125Z,72.01
2018-06-27T00:11:54.232Z,71.38
2018-06-27T00:14:23.316Z,70.71
2018-06-27T00:16:52.476Z,71.04
2018-06-27T00:19:21.615Z,70.85
2018-06-27T00:21:50.673Z,70.84
2018-06-27T00:24:19.753Z,70.21
2018-06-27T00:26:48.856Z,70.21
2018-06-27T00:29:17.936Z,70.16
2018-06-27T00:31:47.020Z,70.44
2018-06-27T00:34:16.120Z,70.51
2018-06-27T00:36:45.209Z,70.97
2018-06-27T00:39:14.304Z,70.94
2018-06-27T00:41:43.380Z,71.25
2018-06-27T00:44:12.481Z,71.33
2018-06-27T00:46:41.565Z,70.83
2018-06-27T00:49:10.666Z,71.09
2018-06-27T00:51:39.748Z,71.25
2018-06-27T00:54:09.761Z,70.87
2018-06-27T00:56:41.700Z,70.46
2018-06-27T00:59:10.808Z,70.67
2018-06-27T01:01:39.977Z,70.71
2018-06-27T01:04:09.089Z,70.43
2018-06-27T01:06:38.182Z,70.28
2018-06-27T01:09:08.711Z,70.38
2018-06-27T01:11:37.805Z,70.28
2018-06-27T01:14:06.893Z,70.47
2018-06-27T01:16:35.960Z,70.26
2018-06-27T01:19:05.162Z,70.54
2018-06-27T01:21:34.294Z,70.62
2018-06-27T01:24:03.395Z,70.54
2018-06-27T01:26:32.465Z,70.70
2018-06-27T01:29:01.557Z,70.74
2018-06-27T01:31:30.628Z,70.27
2018-06-27T01:33:59.725Z,70.45
2018-06-27T01:36:28.833Z,70.77
2018-06-27T01:38:57.959Z,70.82
2018-06-27T01:41:27.023Z,70.16
2018-06-27T01:43:56.087Z,69.94
2018-06-27T01:46:25.184Z,70.24
2018-06-27T01:48:54.464Z,70.25
2018-06-27T01:51:23.565Z,70.25
2018-06-27T01:53:52.721Z,70.59
2018-06-27T01:56:21.760Z,71.17
2018-06-27T01:58:50.840Z,70.99
2018-06-27T02:01:19.936Z,71.13
2018-06-27T02:03:49.009Z,71.11
2018-06-27T02:06:18.155Z,71.07
2018-06-27T02:08:47.227Z,71.54
2018-06-27T02:11:16.329Z,71.79
2018-06-27T02:13:45.399Z,71.97
2018-06-27T02:16:14.504Z,72.71
2018-06-27T02:18:43.572Z,72.90
2018-06-27T02:21:12.663Z,72.79
2018-06-27T02:23:41.764Z,72.40
2018-06-27T02:26:10.870Z,71.74
2018-06-27T02:28:39.944Z,72.32
2018-06-27T02:31:09.209Z,71.99
2018-06-27T02:33:38.277Z,71.82
2018-06-27T02:36:07.377Z,71.44
2018-06-27T02:38:36.447Z,70.97
2018-06-27T02:41:05.544Z,71.30
2018-06-27T02:43:34.616Z,71.36
2018-06-27T02:46:03.744Z,71.42
2018-06-27T02:48:32.825Z,71.57
2018-06-27T02:51:02.722Z,71.41
2018-06-27T02:53:37.125Z,71.59
2018-06-27T02:56:07.765Z,71.80
2018-06-27T02:58:36.856Z,72.27
2018-06-27T03:01:06.053Z,71.47
2018-06-27T03:03:35.136Z,70.88
2018-06-27T03:06:04.221Z,71.07
2018-06-27T03:08:33.317Z,70.92
2018-06-27T03:11:02.409Z,70.81
2018-06-27T03:13:31.516Z,70.61
2018-06-27T03:16:00.625Z,70.75
2018-06-27T03:18:29.763Z,71.16
2018-06-27T03:20:58.965Z,71.52
2018-06-27T03:23:28.105Z,71.63
2018-06-27T03:25:57.252Z,71.71
2018-06-27T03:28:26.389Z,72.14
2018-06-27T03:30:55.519Z,72.83
2018-06-27T03:33:24.633Z,72.70
2018-06-27T03:35:53.784Z,72.48
2018-06-27T03:38:22.917Z,72.71
2018-06-27T03:40:52.077Z,73.13
2018-06-27T03:43:21.289Z,73.28
2018-06-27T03:45:50.389Z,73.50
2018-06-27T03:48:19.519Z,72.79
2018-06-27T03:50:48.624Z,72.96
2018-06-27T03:53:17.771Z,72.50
2018-06-27T03:55:46.860Z,73.41
2018-06-27T03:58:16.036Z,72.89
2018-06-27T04:00:45.213Z,73.07
2018-06-27T04:03:14.536Z,72.96
2018-06-27T04:05:43.616Z,73.53
2018-06-27T04:08:12.728Z,73.11
2018-06-27T04:10:41.999Z,73.27
2018-06-27T04:13:11.215Z,73.34
2018-06-27T04:15:40.293Z,72.65
2018-06-27T04:18:09.503Z,72.53
2018-06-27T04:20:38.603Z,72.77
2018-06-27T04:23:07.709Z,71.75
2018-06-27T04:25:36.881Z,71.06
2018-06-27T04:28:06.304Z,70.68
2018-06-27T04:30:35.412Z,70.93
2018-06-27T04:33:04.581Z,70.47
2018-06-27T04:35:34.213Z,70.21
2018-06-27T04:38:03.704Z,70.47
2018-06-27T04:40:32.852Z,70.55
2018-06-27T04:43:01.965Z,70.94
2018-06-27T04:45:31.065Z,70.14
2018-06-27T04:48:00.164Z,70.43
2018-06-27T04:50:29.740Z,70.93
2018-06-27T04:52:58.952Z,71.21
2018-06-27T04:55:28.102Z,71.03
2018-06-27T04:57:57.190Z,71.37
2018-06-27T05:00:26.296Z,71.45
2018-06-27T05:02:55.428Z,71.49
2018-06-27T05:05:25.061Z,71.87
2018-06-27T05:07:54.756Z,72.69
2018-06-27T05:10:23.889Z,73.07
2018-06-27T05:12:53.119Z,73.04
2018-06-27T05:15:22.264Z,73.14
2018-06-27T05:17:51.371Z,73.45
2018-06-27T05:20:20.488Z,72.92
2018-06-27T05:22:49.572Z,72.81
2018-06-27T05:25:18.676Z,72.40
2018-06-27T05:27:47.769Z,72.91
2018-06-27T05:30:16.958Z,73.07
2018-06-27T05:32:46.047Z,73.30
2018-06-27T05:35:15.161Z,73.22
2018-06-27T05:37:44.260Z,73.07
2018-06-27T05:40:13.376Z,73.37
2018-06-27T05:42:42.455Z,72.66
2018-06-27T05:45:11.569Z,73.40
2018-06-27T05:47:40.649Z,73.68
2018-06-27T05:50:10.052Z,73.97
2018-06-27T05:52:39.148Z,74.41
2018-06-27T05:55:09.517Z,74.02
2018-06-27T05:57:40.316Z,73.91
2018-06-27T06:00:10.324Z,73.73
2018-06-27T06:02:39.436Z,74.41
2018-06-27T06:05:08.653Z,74.82
2018-06-27T06:07:37.764Z,74.99
2018-06-27T06:10:06.922Z,75.16
2018-06-27T06:12:36.233Z,75.50
2018-06-27T06:15:06.992Z,75.71
2018-06-27T06:17:36.192Z,76.90
2018-06-27T06:20:05.284Z,76.09
2018-06-27T06:22:34.560Z,76.45
2018-06-27T06:25:03.720Z,75.87
2018-06-27T06:27:32.852Z,75.62
2018-06-27T06:30:01.940Z,76.53
2018-06-27T06:32:31.161Z,76.29
2018-06-27T06:35:00.140Z,76.17
2018-06-27T06:37:29.268Z,75.52
2018-06-27T06:39:58.384Z,75.50
2018-06-27T06:42:27.492Z,74.95
2018-06-27T06:44:57.631Z,75.22
2018-06-27T06:47:26.829Z,75.17
2018-06-27T06:49:55.920Z,75.91
2018-06-27T06:52:25.115Z,75.23
2018-06-27T06:54:54.248Z,75.21
2018-06-27T06:57:23.424Z,75.13
2018-06-27T06:59:52.516Z,74.29
2018-06-27T07:02:21.625Z,73.16
2018-06-27T07:04:50.740Z,72.97
2018-06-27T07:07:19.860Z,71.68
2018-06-27T07:09:49.672Z,71.55
2018-06-27T07:12:18.780Z,71.04
2018-06-27T07:14:47.868Z,72.06
2018-06-27T07:17:16.989Z,71.19
2018-06-27T07:19:46.245Z,70.97
2018-06-27T07:22:15.342Z,71.01
2018-06-27T07:24:44.485Z,70.52
2018-06-27T07:27:13.722Z,69.99
2018-06-27T07:29:42.837Z,68.59
2018-06-27T07:32:11.940Z,67.61
2018-06-27T07:34:41.029Z,66.51
2018-06-27T07:37:10.254Z,66.37
2018-06-27T07:39:39.366Z,66.23
2018-06-27T07:42:09.388Z,65.86
2018-06-27T07:44:38.480Z,64.44
2018-06-27T07:47:07.844Z,63.32
2018-06-27T07:49:37.572Z,62.81
2018-06-27T07:52:07.037Z,62.27
2018-06-27T07:54:39.747Z,63.15
2018-06-27T07:57:10.917Z,61.86
2018-06-27T07:59:40.145Z,62.09
2018-06-27T08:02:09.557Z,62.03
2018-06-27T08:04:39.804Z,61.66
2018-06-27T08:07:08.833Z,61.56
2018-06-27T08:09:38.002Z,61.44
2018-06-27T08:12:07.728Z,60.68
2018-06-27T08:14:37.029Z,60.29
2018-06-27T08:17:06.715Z,58.85
2018-06-27T08:19:36.050Z,58.23
2018-06-27T08:22:05.516Z,58.00
2018-06-27T08:24:34.753Z,57.59
2018-06-27T08:27:04.106Z,57.45
2018-06-27T08:29:33.768Z,56.67
2018-06-27T08:32:02.955Z,55.92
2018-06-27T08:34:32.056Z,55.76
2018-06-27T08:37:00.885Z,56.92
2018-06-27T08:39:30.240Z,54.97
2018-06-27T08:41:59.854Z,54.84
2018-06-27T08:44:29.187Z,55.52
2018-06-27T08:46:58.370Z,55.04
2018-06-27T08:49:27.656Z,54.69
2018-06-27T08:51:56.760Z,54.89
2018-06-27T08:54:26.026Z,53.51
2018-06-27T08:56:55.113Z,53.96
2018-06-27T08:59:24.636Z,51.80
2018-06-27T09:01:53.822Z,50.76
2018-06-27T09:04:22.909Z,50.97
2018-06-27T09:06:52.023Z,51.51
2018-06-27T09:09:21.268Z,51.35
2018-06-27T09:11:50.578Z,49.14
2018-06-27T09:14:19.756Z,47.77
2018-06-27T09:16:48.840Z,46.89
2018-06-27T09:19:18.021Z,45.92
2018-06-27T09:21:47.177Z,45.53
2018-06-27T09:24:17.827Z,46.60
2018-06-27T09:26:46.998Z,46.65
2018-06-27T09:29:16.088Z,46.62
2018-06-27T09:31:45.426Z,47.41
2018-06-27T09:34:15.336Z,46.89
2018-06-27T09:36:44.714Z,47.76
2018-06-27T09:39:14.055Z,47.55
2018-06-27T09:41:43.367Z,48.73
2018-06-27T09:44:13.041Z,47.75
2018-06-27T09:46:42.159Z,47.30
2018-06-27T09:49:11.397Z,48.91
2018-06-27T09:51:41.361Z,47.73
2018-06-27T09:54:10.478Z,46.60
2018-06-27T09:56:39.619Z,47.56
2018-06-27T09:59:08.761Z,47.06
2018-06-27T10:01:37.877Z,46.18
2018-06-27T10:04:06.965Z,46.16
2018-06-27T10:06:36.064Z,46.15
2018-06-27T10:09:07.710Z,47.16
2018-06-27T10:11:36.810Z,46.88
2018-06-27T10:14:05.936Z,47.13
2018-06-27T10:16:35.073Z,46.75
2018-06-27T10:19:04.156Z,46.52
2018-06-27T10:21:33.265Z,46.52
2018-06-27T10:24:02.344Z,46.42
2018-06-27T10:26:31.447Z,46.30
2018-06-27T10:29:00.524Z,45.93
2018-06-27T10:31:29.628Z,46.29
2018-06-27T10:33:58.716Z,46.39
2018-06-27T10:36:27.817Z,45.71
2018-06-27T10:38:56.916Z,45.75
2018-06-27T10:41:26.013Z,46.21
2018-06-27T10:43:55.554Z,46.15
2018-06-27T10:46:25.286Z,47.05
2018-06-27T10:48:55.134Z,46.18
2018-06-27T10:51:25.225Z,45.16
2018-06-27T10:53:55.097Z,44.84
2018-06-27T10:56:24.400Z,45.38
2018-06-27T10:58:53.593Z,44.45
2018-06-27T11:01:23.499Z,42.04
2018-06-27T11:03:52.946Z,41.97
2018-06-27T11:06:22.063Z,38.57
2018-06-27T11:08:51.244Z,38.11
2018-06-27T11:11:20.929Z,38.57
2018-06-27T11:13:50.661Z,37.68
2018-06-27T11:16:19.954Z,36.59
2018-06-27T11:18:49.922Z,37.22
2018-06-27T11:21:19.033Z,36.16
2018-06-27T11:23:48.141Z,37.20
2018-06-27T11:26:17.217Z,35.99
2018-06-27T11:28:46.321Z,35.89
2018-06-27T11:31:15.415Z,35.93
2018-06-27T11:33:44.511Z,37.01
2018-06-27T11:36:13.596Z,36.41
2018-06-27T11:38:42.745Z,35.98
2018-06-27T11:41:11.790Z,35.55
2018-06-27T11:43:40.892Z,34.88
2018-06-27T11:46:10.017Z,35.51
2018-06-27T11:48:39.108Z,35.26
2018-06-27T11:51:08.208Z,34.07
2018-06-27T11:53:37.329Z,34.43
2018-06-27T11:56:06.423Z,33.85
2018-06-27T11:58:35.504Z,33.85
2018-06-27T12:01:04.569Z,32.48
2018-06-27T12:03:33.668Z,33.31
2018-06-27T12:06:02.747Z,33.44
2018-06-27T12:08:31.812Z,32.72
2018-06-27T12:11:00.900Z,32.28
2018-06-27T12:13:29.976Z,31.87
2018-06-27T12:15:59.077Z,32.45
2018-06-27T12:18:28.182Z,33.26
2018-06-27T12:20:57.268Z,32.69
2018-06-27T12:23:26.347Z,33.11
2018-06-27T12:25:55.462Z,32.41
2018-06-27T12:28:24.537Z,31.94
2018-06-27T12:30:53.673Z,31.71
2018-06-27T12:33:23.471Z,32.15
2018-06-27T12:35:52.646Z,31.72
2018-06-27T12:38:21.717Z,32.54
2018-06-27T12:40:50.801Z,31.73
2018-06-27T12:43:19.914Z,33.16
2018-06-27T12:45:49.001Z,33.26
2018-06-27T12:48:18.068Z,33.13
2018-06-27T12:50:47.182Z,32.13
2018-06-27T12:53:16.232Z,33.91
2018-06-27T12:55:45.344Z,31.97
2018-06-27T12:58:14.412Z,32.80
2018-06-27T13:00:43.508Z,32.36
2018-06-27T13:03:12.620Z,31.92
2018-06-27T13:05:41.716Z,32.66
2018-06-27T13:08:10.789Z,32.77
2018-06-27T13:10:39.876Z,33.59
2018-06-27T13:13:08.948Z,32.14
2018-06-27T13:15:38.046Z,33.02
2018-06-27T13:18:07.500Z,32.91
2018-06-27T13:20:36.652Z,31.78
2018-06-27T13:23:05.932Z,32.22
2018-06-27T13:25:35.026Z,32.24
2018-06-27T13:28:04.104Z,32.53
2018-06-27T13:30:33.196Z,32.12
2018-06-27T13:33:02.273Z,32.49
2018-06-27T13:35:31.436Z,32.02
2018-06-27T13:38:00.508Z,33.03
2018-06-27T13:40:29.590Z,31.88
2018-06-27T13:42:58.688Z,31.38
2018-06-27T13:45:27.754Z,31.42
2018-06-27T13:47:56.852Z,32.18
2018-06-27T13:50:25.985Z,32.18
2018-06-27T13:52:56.115Z,32.77
2018-06-27T13:55:25.259Z,31.94
2018-06-27T13:57:54.381Z,31.01
2018-06-27T14:00:23.525Z,32.47
2018-06-27T14:02:52.630Z,31.45
2018-06-27T14:05:21.716Z,32.01
2018-06-27T14:07:50.817Z,31.47
2018-06-27T14:10:19.921Z,31.06
2018-06-27T14:12:49.056Z,32.46
2018-06-27T14:15:18.153Z,31.27
2018-06-27T14:17:47.264Z,31.33
2018-06-27T14:20:16.349Z,31.08
2018-06-27T14:22:45.457Z,31.47
2018-06-27T14:25:14.601Z,31.51
2018-06-27T14:27:43.697Z,31.54
2018-06-27T14:30:12.776Z,31.15
2018-06-27T14:32:41.894Z,31.22
2018-06-27T14:35:10.985Z,32.09
2018-06-27T14:37:40.174Z,32.04
2018-06-27T14:40:09.315Z,31.63
2018-06-27T14:42:38.365Z,31.79
2018-06-27T14:45:07.911Z,32.18
2018-06-27T14:47:37.022Z,31.21
2018-06-27T14:50:06.129Z,31.83
2018-06-27T14:52:35.236Z,31.73
2018-06-27T14:55:04.389Z,32.37
2018-06-27T14:57:33.477Z,32.85
2018-06-27T15:00:02.574Z,32.55
2018-06-27T15:02:31.663Z,33.41
2018-06-27T15:05:00.785Z,32.90
2018-06-27T15:07:29.866Z,32.72
2018-06-27T15:09:59.043Z,33.04
2018-06-27T15:12:28.137Z,33.11
2018-06-27T15:14:57.233Z,32.93
2018-06-27T15:17:26.316Z,33.20
2018-06-27T15:19:55.423Z,34.33
2018-06-27T15:22:24.501Z,33.10
2018-06-27T15:24:53.612Z,33.66
2018-06-27T15:27:22.676Z,33.83
2018-06-27T15:29:51.776Z,32.99
2018-06-27T15:32:20.861Z,32.87
2018-06-27T15:34:49.967Z,33.95
2018-06-27T15:37:19.040Z,34.55
2018-06-27T15:39:48.144Z,33.85
2018-06-27T15:42:17.241Z,34.71
2018-06-27T15:44:46.376Z,34.14
2018-06-27T15:47:15.473Z,34.63
2018-06-27T15:49:44.576Z,35.16
2018-06-27T15:52:13.681Z,35.13
2018-06-27T15:54:42.836Z,34.32
2018-06-27T15:57:11.920Z,33.61
2018-06-27T15:59:48.391Z,33.85
2018-06-27T16:02:17.481Z,33.12
2018-06-27T16:04:46.584Z,34.02
2018-06-27T16:07:15.713Z,33.34
2018-06-27T16:09:44.813Z,33.27
2018-06-27T16:12:13.935Z,33.85
2018-06-27T16:14:43.026Z,34.03
2018-06-27T16:17:12.324Z,34.85
2018-06-27T16:19:41.213Z,34.87
2018-06-27T16:22:10.313Z,34.32
2018-06-27T16:24:39.400Z,34.35
2018-06-27T16:27:08.521Z,34.21
2018-06-27T16:29:37.656Z,33.50
2018-06-27T16:32:06.692Z,34.27
2018-06-27T16:34:35.777Z,33.31
2018-06-27T16:37:04.915Z,34.33
2018-06-27T16:39:34.009Z,34.36
2018-06-27T16:42:03.114Z,34.13
2018-06-27T16:44:32.216Z,34.38
2018-06-27T16:47:01.300Z,34.30
2018-06-27T16:49:30.380Z,34.80
2018-06-27T16:51:59.493Z,34.69
2018-06-27T16:54:28.600Z,34.61
2018-06-27T16:56:57.701Z,35.32
2018-06-27T16:59:26.777Z,34.50
2018-06-27T17:01:55.907Z,34.55
2018-06-27T17:04:24.992Z,34.69
2018-06-27T17:06:54.196Z,34.12
2018-06-27T17:09:23.229Z,33.86
2018-06-27T17:11:52.333Z,32.99
2018-06-27T17:14:22.392Z,33.42
2018-06-27T17:16:51.496Z,33.61
2018-06-27T17:19:20.604Z,34.03
2018-06-27T17:21:49.704Z,33.59
2018-06-27T17:24:18.808Z,34.10
2018-06-27T17:26:47.881Z,35.85
2018-06-27T17:29:17.057Z,35.91
2018-06-27T17:31:46.141Z,35.58
2018-06-27T17:34:15.241Z,35.62
2018-06-27T17:36:44.328Z,37.07
2018-06-27T17:39:13.561Z,36.45
2018-06-27T17:41:42.654Z,36.57
2018-06-27T17:44:11.756Z,36.99
2018-06-27T17:46:40.865Z,36.99
2018-06-27T17:49:09.981Z,37.03
2018-06-27T17:51:39.096Z,36.31
2018-06-27T17:54:08.232Z,36.22
2018-06-27T17:56:37.317Z,34.69
2018-06-27T17:59:06.657Z,34.99
2018-06-27T18:01:35.869Z,35.66
2018-06-27T18:04:04.951Z,36.26
2018-06-27T18:06:34.033Z,36.82
2018-06-27T18:09:05.022Z,36.79
2018-06-27T18:11:34.113Z,36.83
2018-06-27T18:14:03.345Z,35.99
2018-06-27T18:16:32.432Z,37.24
2018-06-27T18:19:01.549Z,36.70
2018-06-27T18:21:30.680Z,35.90
2018-06-27T18:23:59.772Z,35.81
2018-06-27T18:26:28.879Z,34.40
2018-06-27T18:28:57.971Z,35.62
2018-06-27T18:31:27.089Z,35.68
2018-06-27T18:33:56.298Z,35.99
2018-06-27T18:36:26.335Z,36.43
2018-06-27T18:38:56.554Z,35.81
2018-06-27T18:41:26.865Z,36.44
2018-06-27T18:43:56.038Z,36.98
2018-06-27T18:46:25.128Z,36.63
2018-06-27T18:48:54.213Z,37.32
2018-06-27T18:51:23.352Z,37.42
2018-06-27T18:53:52.579Z,37.95
2018-06-27T18:56:22.593Z,38.29
2018-06-27T18:58:52.612Z,38.93
2018-06-27T19:01:21.919Z,39.23
2018-06-27T19:03:51.056Z,39.64
2018-06-27T19:06:20.525Z,39.90
2018-06-27T19:08:49.785Z,40.60
2018-06-27T19:11:18.892Z,40.91
2018-06-27T19:13:48.017Z,40.63
2018-06-27T19:16:17.148Z,41.32
2018-06-27T19:18:46.241Z,40.66
2018-06-27T19:21:15.374Z,41.46
2018-06-27T19:23:44.457Z,41.87
2018-06-27T19:26:13.564Z,41.87
2018-06-27T19:28:42.657Z,39.88
2018-06-27T19:31:11.768Z,40.96
2018-06-27T19:33:40.860Z,41.13
2018-06-27T19:36:09.997Z,41.99
2018-06-27T19:38:39.100Z,40.50
2018-06-27T19:41:08.225Z,42.28
2018-06-27T19:43:37.289Z,43.74
2018-06-27T19:46:06.569Z,43.84
2018-06-27T19:48:35.688Z,44.57
2018-06-27T19:51:04.784Z,45.22
2018-06-27T19:53:33.938Z,45.78
2018-06-27T19:56:03.062Z,46.15
2018-06-27T19:58:32.212Z,47.38
2018-06-27T20:01:01.308Z,47.82
2018-06-27T20:03:30.429Z,48.03
2018-06-27T20:05:59.509Z,47.58
2018-06-27T20:08:28.653Z,48.20
2018-06-27T20:10:57.744Z,47.93
2018-06-27T20:13:26.869Z,48.29
2018-06-27T20:15:56.039Z,47.91
2018-06-27T20:18:25.085Z,47.67
2018-06-27T20:20:54.922Z,49.15
2018-06-27T20:23:24.033Z,49.05
2018-06-27T20:25:53.165Z,49.68
2018-06-27T20:28:22.281Z,49.91
2018-06-27T20:30:52.161Z,49.77
2018-06-27T20:33:21.277Z,50.27
2018-06-27T20:35:50.373Z,49.96
2018-06-27T20:38:19.496Z,49.59
2018-06-27T20:40:48.589Z,50.51
2018-06-27T20:43:17.692Z,50.62
2018-06-27T20:45:47.218Z,51.40
2018-06-27T20:48:16.317Z,51.88
2018-06-27T20:50:46.256Z,52.24
2018-06-27T20:53:15.369Z,52.73
2018-06-27T20:55:44.477Z,53.05
2018-06-27T20:58:13.558Z,53.52
2018-06-27T21:00:42.662Z,53.62
2018-06-27T21:03:11.820Z,53.74
2018-06-27T21:05:40.976Z,53.47
2018-06-27T21:08:10.049Z,53.36
2018-06-27T21:10:39.165Z,53.53
2018-06-27T21:13:08.266Z,53.34
2018-06-27T21:15:38.177Z,53.65
2018-06-27T21:18:07.288Z,53.50
2018-06-27T21:20:36.405Z,53.62
2018-06-27T21:23:05.636Z,52.90
2018-06-27T21:25:34.749Z,53.17
2018-06-27T21:28:04.565Z,54.17
2018-06-27T21:30:33.668Z,54.19
2018-06-27T21:33:02.791Z,54.49
2018-06-27T21:35:31.912Z,55.17
2018-06-27T21:38:01.073Z,54.94
2018-06-27T21:40:30.176Z,55.16
2018-06-27T21:42:59.264Z,56.00
2018-06-27T21:45:28.382Z,56.40
2018-06-27T21:47:57.462Z,56.15
2018-06-27T21:50:26.561Z,56.82
2018-06-27T21:52:55.828Z,56.55
2018-06-27T21:55:24.954Z,56.05
2018-06-27T21:57:54.040Z,56.08
2018-06-27T22:00:25.013Z,56.42
2018-06-27T22:02:54.280Z,56.62
2018-06-27T22:05:23.393Z,56.48
2018-06-27T22:07:52.481Z,57.74
2018-06-27T22:10:21.563Z,58.06
2018-06-27T22:12:50.725Z,57.51
2018-06-27T22:15:19.807Z,58.04
2018-06-27T22:17:49.029Z,58.45
2018-06-27T22:20:18.101Z,58.70
2018-06-27T22:22:47.197Z,58.81
2018-06-27T22:25:16.308Z,58.27
2018-06-27T22:27:45.412Z,57.74
2018-06-27T22:30:14.514Z,57.44
2018-06-27T22:32:43.612Z,58.01
2018-06-27T22:35:12.689Z,58.38
2018-06-27T22:37:41.785Z,58.62
2018-06-27T22:40:10.845Z,59.18
2018-06-27T22:42:39.940Z,59.92
2018-06-27T22:45:09.024Z,60.64
2018-06-27T22:47:38.149Z,60.88
2018-06-27T22:50:07.217Z,60.97
2018-06-27T22:52:36.308Z,61.75
2018-06-27T22:55:05.409Z,61.32
2018-06-27T22:57:34.516Z,61.52
2018-06-27T23:00:03.672Z,61.06
2018-06-27T23:02:32.506Z,61.58
2018-06-27T23:05:01.574Z,61.61
2018-06-27T23:07:30.748Z,61.62
2018-06-27T23:09:59.861Z,61.32
2018-06-27T23:12:29.348Z,61.38
2018-06-27T23:14:58.484Z,61.24
2018-06-27T23:17:27.646Z,62.18
2018-06-27T23:19:56.760Z,63.01
2018-06-27T23:22:37.236Z,63.18
2018-06-27T23:25:06.396Z,63.71
2018-06-27T23:27:36.457Z,63.47
2018-06-27T23:30:06.505Z,64.12
2018-06-27T23:32:35.621Z,64.09
2018-06-27T23:35:04.860Z,63.75
2018-06-27T23:37:33.992Z,64.59
2018-06-27T23:40:03.119Z,64.69
2018-06-27T23:42:32.314Z,64.88
2018-06-27T23:45:01.896Z,65.16
2018-06-27T23:47:31.487Z,65.39
2018-06-27T23:50:00.609Z,64.85
2018-06-27T23:52:29.716Z,65.13
2018-06-27T23:54:58.866Z,64.60
2018-06-27T23:57:27.988Z,65.13
2018-06-27T23:59:57.092Z,65.29
